createdAt,value
2022-08-28T00:01:02.462Z,68.25
2022-08-28T00:03:30.497Z,68.75
2022-08-28T00:05:58.332Z,68.87
2022-08-28T00:08:26.019Z,68.59
2022-08-28T00:10:53.927Z,69.37
2022-08-28T00:13:25.346Z,69.29
2022-08-28T00:15:54.864Z,69.01
2022-08-28T00:18:23.211Z,68.99
2022-08-28T00:20:53.161Z,69.45
2022-08-28T00:23:21.854Z,69.64
2022-08-28T00:25:49.574Z,70.50
2022-08-28T00:28:24.325Z,70.39
2022-08-28T00:30:55.686Z,70.63
2022-08-28T00:33:24.406Z,70.70
2022-08-28T00:35:52.597Z,70.33
2022-08-28T00:38:21.038Z,70.05
2022-08-28T00:40:50.360Z,70.31
2022-08-28T00:43:24.215Z,70.55
2022-08-28T00:45:53.432Z,71.43
2022-08-28T00:48:21.073Z,71.06
2022-08-28T00:51:05.614Z,71.49
2022-08-28T00:53:33.339Z,71.18
2022-08-28T00:56:04.075Z,71.05
2022-08-28T00:58:34.771Z,70.89
2022-08-28T01:01:04.230Z,71.08
2022-08-28T01:03:31.902Z,70.49
2022-08-28T01:06:00.041Z,70.31
2022-08-28T01:08:30.280Z,70.44
2022-08-28T01:10:59.331Z,70.54
2022-08-28T01:13:27.650Z,69.99
2022-08-28T01:15:56.071Z,70.01
2022-08-28T01:18:26.081Z,70.13
2022-08-28T01:20:56.723Z,69.79
2022-08-28T01:23:29.745Z,69.94
2022-08-28T01:26:00.179Z,69.34
2022-08-28T01:28:29.114Z,69.55
2022-08-28T01:30:58.934Z,69.33
2022-08-28T01:33:28.244Z,68.90
2022-08-28T01:35:56.662Z,69.21
2022-08-28T01:38:26.767Z,69.17
2022-08-28T01:40:57.222Z,69.33
2022-08-28T01:43:27.603Z,69.28
2022-08-28T01:45:57.784Z,69.05
2022-08-28T01:48:27.416Z,69.36
2022-08-28T01:50:55.323Z,69.33
2022-08-28T01:53:24.917Z,69.02
2022-08-28T01:55:53.477Z,69.30
2022-08-28T01:58:21.811Z,69.52
2022-08-28T02:00:50.800Z,69.69
2022-08-28T02:03:18.469Z,69.18
2022-08-28T02:05:46.847Z,69.53
2022-08-28T02:08:15.060Z,69.54
2022-08-28T02:10:44.541Z,69.63
2022-08-28T02:13:12.697Z,69.71
2022-08-28T02:15:41.775Z,69.71
2022-08-28T02:18:11.005Z,69.82
2022-08-28T02:20:39.195Z,69.88
2022-08-28T02:23:07.093Z,69.50
2022-08-28T02:25:34.711Z,69.60
2022-08-28T02:28:02.579Z,69.64
2022-08-28T02:30:30.481Z,69.77
2022-08-28T02:32:58.123Z,69.90
2022-08-28T02:35:27.153Z,69.91
2022-08-28T02:37:55.548Z,69.67
2022-08-28T02:40:24.219Z,69.14
2022-08-28T02:42:52.285Z,69.17
2022-08-28T02:45:20.702Z,69.24
2022-08-28T02:47:48.886Z,68.79
2022-08-28T02:50:17.943Z,69.40
2022-08-28T02:52:47.471Z,69.24
2022-08-28T02:55:17.279Z,69.39
2022-08-28T02:57:44.875Z,69.35
2022-08-28T03:00:14.203Z,69.44
2022-08-28T03:02:42.563Z,69.22
2022-08-28T03:05:11.143Z,68.94
2022-08-28T03:07:38.767Z,69.40
2022-08-28T03:10:08.678Z,69.09
2022-08-28T03:12:36.457Z,69.32
2022-08-28T03:15:05.966Z,69.43
2022-08-28T03:17:33.621Z,69.09
2022-08-28T03:20:01.324Z,69.65
2022-08-28T03:22:42.811Z,69.37
2022-08-28T03:25:12.670Z,69.58
2022-08-28T03:27:40.274Z,69.69
2022-08-28T03:30:08.805Z,69.45
2022-08-28T03:32:36.801Z,69.62
2022-08-28T03:35:05.457Z,69.31
2022-08-28T03:37:33.171Z,69.76
2022-08-28T03:40:01.351Z,69.57
2022-08-28T03:42:31.079Z,69.54
2022-08-28T03:45:00.466Z,69.58
2022-08-28T03:47:29.624Z,69.32
2022-08-28T03:49:57.851Z,69.41
2022-08-28T03:52:26.019Z,69.18
2022-08-28T03:54:53.662Z,69.37
2022-08-28T03:57:22.035Z,69.46
2022-08-28T03:59:52.066Z,69.81
2022-08-28T04:02:20.498Z,69.68
2022-08-28T04:04:48.508Z,69.64
2022-08-28T04:07:16.238Z,69.57
2022-08-28T04:09:43.898Z,69.44
2022-08-28T04:12:11.691Z,69.62
2022-08-28T04:14:39.403Z,69.58
2022-08-28T04:17:08.838Z,69.98
2022-08-28T04:19:36.507Z,69.69
2022-08-28T04:22:04.117Z,69.89
2022-08-28T04:24:32.035Z,70.23
2022-08-28T04:26:59.712Z,70.19
2022-08-28T04:29:27.411Z,70.69
2022-08-28T04:31:56.272Z,70.51
2022-08-28T04:34:25.256Z,70.23
2022-08-28T04:36:52.839Z,70.45
2022-08-28T04:39:20.662Z,70.44
2022-08-28T04:41:50.032Z,70.46
2022-08-28T04:44:18.073Z,70.42
2022-08-28T04:46:48.256Z,70.59
2022-08-28T04:49:16.353Z,70.39
2022-08-28T04:51:45.308Z,70.85
2022-08-28T04:54:14.883Z,70.60
2022-08-28T04:56:42.579Z,70.50
2022-08-28T04:59:11.620Z,70.67
2022-08-28T05:01:39.305Z,70.77
2022-08-28T05:04:06.953Z,70.68
2022-08-28T05:06:34.606Z,70.68
2022-08-28T05:09:04.580Z,70.50
2022-08-28T05:11:34.615Z,70.31
2022-08-28T05:14:04.263Z,70.38
2022-08-28T05:16:32.142Z,70.13
2022-08-28T05:19:00.286Z,69.94
2022-08-28T05:21:28.227Z,70.17
2022-08-28T05:23:57.687Z,69.96
2022-08-28T05:26:28.338Z,69.98
2022-08-28T05:28:58.002Z,69.93
2022-08-28T05:31:26.585Z,69.68
2022-08-28T05:33:54.368Z,69.47
2022-08-28T05:36:23.118Z,69.37
2022-08-28T05:38:56.840Z,68.81
2022-08-28T05:41:26.877Z,68.41
2022-08-28T05:43:55.523Z,68.13
2022-08-28T05:46:23.430Z,68.02
2022-08-28T05:48:51.187Z,67.88
2022-08-28T05:51:20.059Z,68.11
2022-08-28T05:53:50.056Z,67.61
2022-08-28T05:56:18.592Z,67.58
2022-08-28T05:58:47.504Z,67.75
2022-08-28T06:01:17.574Z,67.15
2022-08-28T06:03:47.853Z,66.74
2022-08-28T06:06:15.471Z,66.16
2022-08-28T06:08:58.533Z,66.01
2022-08-28T06:11:27.278Z,65.31
2022-08-28T06:14:01.805Z,64.52
2022-08-28T06:16:31.339Z,64.31
2022-08-28T06:18:59.485Z,63.39
2022-08-28T06:21:27.413Z,64.54
2022-08-28T06:23:55.060Z,63.25
2022-08-28T06:26:22.925Z,63.00
2022-08-28T06:28:51.127Z,61.57
2022-08-28T06:31:23.408Z,62.11
2022-08-28T06:33:53.871Z,62.40
2022-08-28T06:36:21.437Z,61.37
2022-08-28T06:38:49.080Z,61.47
2022-08-28T06:41:17.015Z,61.22
2022-08-28T06:43:44.645Z,58.14
2022-08-28T06:46:12.363Z,56.47
2022-08-28T06:48:41.449Z,54.81
2022-08-28T06:51:10.460Z,53.62
2022-08-28T06:53:38.888Z,54.66
2022-08-28T06:56:08.446Z,54.51
2022-08-28T06:58:36.923Z,54.50
2022-08-28T07:01:05.606Z,56.18
2022-08-28T07:03:33.392Z,57.05
2022-08-28T07:06:03.368Z,56.58
2022-08-28T07:08:31.673Z,55.28
2022-08-28T07:10:59.779Z,55.63
2022-08-28T07:13:32.112Z,53.56
2022-08-28T07:16:01.422Z,53.23
2022-08-28T07:18:29.107Z,53.03
2022-08-28T07:20:57.352Z,51.26
2022-08-28T07:23:26.392Z,50.29
2022-08-28T07:25:54.052Z,49.82
2022-08-28T07:28:21.762Z,49.29
2022-08-28T07:30:56.629Z,48.98
2022-08-28T07:33:24.316Z,46.05
2022-08-28T07:35:51.939Z,44.69
2022-08-28T07:38:19.693Z,45.35
2022-08-28T07:40:48.724Z,45.46
2022-08-28T07:43:34.231Z,43.99
2022-08-28T07:46:02.561Z,43.53
2022-08-28T07:48:30.187Z,42.51
2022-08-28T07:50:57.823Z,42.83
2022-08-28T07:53:25.483Z,41.45
2022-08-28T07:55:54.511Z,41.91
2022-08-28T07:58:22.505Z,42.64
2022-08-28T08:00:50.130Z,41.69
2022-08-28T08:03:17.745Z,41.76
2022-08-28T08:05:52.637Z,43.85
2022-08-28T08:08:20.328Z,41.93
2022-08-28T08:10:57.609Z,41.13
2022-08-28T08:13:25.314Z,40.86
2022-08-28T08:15:53.162Z,41.12
2022-08-28T08:18:20.898Z,41.97
2022-08-28T08:20:52.521Z,41.81
2022-08-28T08:23:20.127Z,40.30
2022-08-28T08:25:54.842Z,40.74
2022-08-28T08:28:24.169Z,39.98
2022-08-28T08:30:52.093Z,38.29
2022-08-28T08:33:20.203Z,38.12
2022-08-28T08:35:47.834Z,39.00
2022-08-28T08:38:15.535Z,39.32
2022-08-28T08:40:43.235Z,37.45
2022-08-28T08:43:11.125Z,37.64
2022-08-28T08:45:43.012Z,38.60
2022-08-28T08:48:14.206Z,39.48
2022-08-28T08:50:42.303Z,40.15
2022-08-28T08:53:16.197Z,38.55
2022-08-28T08:55:45.118Z,37.24
2022-08-28T08:58:15.759Z,37.07
2022-08-28T09:00:50.780Z,36.66
2022-08-28T09:03:23.096Z,37.14
2022-08-28T09:05:53.479Z,37.08
2022-08-28T09:08:28.427Z,36.69
2022-08-28T09:11:01.741Z,37.30
2022-08-28T09:13:33.227Z,36.93
2022-08-28T09:16:04.869Z,35.67
2022-08-28T09:18:34.552Z,37.13
2022-08-28T09:21:02.442Z,35.92
2022-08-28T09:23:31.362Z,34.83
2022-08-28T09:26:01.722Z,35.19
2022-08-28T09:28:30.669Z,34.88
2022-08-28T09:31:00.373Z,36.72
2022-08-28T09:33:30.261Z,36.95
2022-08-28T09:35:57.989Z,35.37
2022-08-28T09:38:28.297Z,32.45
2022-08-28T09:41:25.195Z,35.50
2022-08-28T09:43:53.023Z,35.62
2022-08-28T09:46:22.997Z,33.77
2022-08-28T09:48:53.055Z,33.33
2022-08-28T09:51:29.437Z,33.63
2022-08-28T09:53:59.494Z,33.90
2022-08-28T09:56:29.521Z,32.83
2022-08-28T09:58:59.646Z,32.75
2022-08-28T10:01:37.513Z,32.86
2022-08-28T10:04:16.718Z,32.56
2022-08-28T10:06:48.893Z,31.22
2022-08-28T10:09:22.593Z,30.82
2022-08-28T10:11:55.450Z,29.86
2022-08-28T10:14:32.532Z,31.88
2022-08-28T10:17:06.005Z,33.14
2022-08-28T10:19:39.807Z,30.56
2022-08-28T10:22:11.967Z,30.11
2022-08-28T10:24:50.082Z,30.31
2022-08-28T10:27:24.444Z,32.01
2022-08-28T10:29:54.274Z,35.35
2022-08-28T10:32:32.958Z,33.51
2022-08-28T10:35:07.000Z,32.16
2022-08-28T10:37:41.481Z,31.83
2022-08-28T10:40:11.835Z,30.71
2022-08-28T10:42:41.740Z,31.01
2022-08-28T10:45:12.900Z,32.40
2022-08-28T10:47:42.759Z,31.78
2022-08-28T10:50:16.249Z,32.45
2022-08-28T10:52:47.021Z,30.25
2022-08-28T10:55:18.783Z,32.96
2022-08-28T10:57:49.027Z,33.39
2022-08-28T11:00:19.782Z,32.28
2022-08-28T11:02:50.164Z,31.79
2022-08-28T11:05:23.384Z,29.84
2022-08-28T11:07:53.605Z,29.90
2022-08-28T11:10:23.917Z,32.03
2022-08-28T11:12:52.720Z,31.11
2022-08-28T11:15:40.810Z,31.42
2022-08-28T11:18:26.630Z,31.73
2022-08-28T11:21:00.902Z,31.19
2022-08-28T11:23:34.105Z,30.57
2022-08-28T11:26:04.659Z,29.21
2022-08-28T11:28:43.804Z,29.00
2022-08-28T11:31:29.522Z,29.12
2022-08-28T11:33:59.148Z,28.19
2022-08-28T11:36:45.523Z,27.88
2022-08-28T11:39:22.763Z,27.24
2022-08-28T11:42:09.332Z,27.42
2022-08-28T11:44:41.933Z,29.35
2022-08-28T11:47:28.334Z,29.03
2022-08-28T11:49:55.989Z,27.69
2022-08-28T11:52:37.487Z,27.95
2022-08-28T11:55:13.045Z,27.23
2022-08-28T11:57:48.046Z,27.61
2022-08-28T12:00:22.160Z,29.13
2022-08-28T12:03:04.683Z,27.91
2022-08-28T12:05:52.267Z,27.69
2022-08-28T12:08:34.751Z,27.36
2022-08-28T12:11:03.998Z,27.86
2022-08-28T12:13:49.004Z,27.13
2022-08-28T12:16:16.658Z,29.32
2022-08-28T12:18:59.184Z,27.00
2022-08-28T12:21:28.640Z,29.11
2022-08-28T12:24:05.327Z,28.13
2022-08-28T12:26:40.200Z,26.65
2022-08-28T12:29:17.878Z,26.47
2022-08-28T12:32:12.524Z,25.53
2022-08-28T12:34:43.568Z,26.50
2022-08-28T12:37:24.552Z,27.02
2022-08-28T12:39:52.960Z,28.29
2022-08-28T12:42:25.475Z,29.26
2022-08-28T12:44:53.396Z,27.68
2022-08-28T12:47:23.588Z,27.69
2022-08-28T12:49:51.263Z,27.63
2022-08-28T12:52:20.371Z,27.02
2022-08-28T12:54:48.694Z,25.61
2022-08-28T12:57:17.735Z,26.83
2022-08-28T12:59:47.396Z,26.61
2022-08-28T13:02:22.018Z,26.32
2022-08-28T13:04:53.585Z,26.02
2022-08-28T13:07:26.267Z,26.40
2022-08-28T13:09:55.284Z,27.24
2022-08-28T13:12:26.982Z,27.01
2022-08-28T13:15:14.162Z,24.98
2022-08-28T13:17:53.023Z,26.20
2022-08-28T13:20:27.636Z,26.58
2022-08-28T13:22:55.717Z,25.51
2022-08-28T13:25:25.405Z,25.73
2022-08-28T13:27:57.583Z,27.09
2022-08-28T13:30:27.500Z,26.70
2022-08-28T13:32:56.752Z,27.37
2022-08-28T13:35:37.983Z,26.88
2022-08-28T13:38:08.183Z,26.03
2022-08-28T13:40:57.478Z,27.01
2022-08-28T13:43:27.216Z,26.67
2022-08-28T13:45:56.314Z,27.73
2022-08-28T13:48:25.174Z,25.82
2022-08-28T13:50:54.477Z,27.00
2022-08-28T13:53:22.090Z,28.27
2022-08-28T13:55:50.345Z,27.22
2022-08-28T13:58:18.131Z,27.45
2022-08-28T14:00:46.910Z,27.44
2022-08-28T14:03:33.795Z,27.25
2022-08-28T14:06:02.476Z,28.10
2022-08-28T14:08:30.422Z,26.92
2022-08-28T14:10:58.313Z,27.01
2022-08-28T14:13:27.616Z,27.68
2022-08-28T14:15:55.612Z,27.30
2022-08-28T14:18:24.789Z,26.46
2022-08-28T14:20:52.438Z,26.36
2022-08-28T14:23:20.281Z,28.04
2022-08-28T14:25:49.067Z,27.18
2022-08-28T14:28:17.076Z,26.57
2022-08-28T14:30:47.093Z,27.73
2022-08-28T14:33:18.552Z,27.82
2022-08-28T14:35:48.756Z,29.39
2022-08-28T14:38:16.652Z,29.42
2022-08-28T14:40:44.721Z,28.71
2022-08-28T14:43:13.440Z,29.54
2022-08-28T14:45:45.764Z,29.51
2022-08-28T14:48:14.355Z,29.64
2022-08-28T14:50:42.416Z,29.24
2022-08-28T14:53:11.657Z,30.68
2022-08-28T14:55:40.636Z,30.78
2022-08-28T14:58:08.318Z,30.88
2022-08-28T15:00:39.335Z,31.33
2022-08-28T15:03:07.676Z,31.22
2022-08-28T15:05:35.512Z,31.04
2022-08-28T15:08:03.427Z,30.77
2022-08-28T15:10:32.370Z,30.76
2022-08-28T15:12:59.956Z,30.71
2022-08-28T15:15:27.690Z,31.53
2022-08-28T15:17:55.327Z,30.92
2022-08-28T15:20:22.970Z,31.29
2022-08-28T15:22:50.548Z,31.39
2022-08-28T15:25:19.058Z,31.13
2022-08-28T15:27:48.040Z,31.30
2022-08-28T15:30:15.660Z,31.17
2022-08-28T15:32:46.040Z,31.11
2022-08-28T15:35:13.625Z,31.77
2022-08-28T15:37:41.234Z,30.86
2022-08-28T15:40:27.061Z,31.84
2022-08-28T15:42:56.076Z,32.33
2022-08-28T15:45:23.684Z,32.35
2022-08-28T15:47:51.607Z,32.40
2022-08-28T15:50:19.996Z,32.47
2022-08-28T15:52:47.956Z,32.36
2022-08-28T15:55:15.616Z,32.96
2022-08-28T15:57:43.230Z,32.78
2022-08-28T16:00:13.457Z,32.71
2022-08-28T16:02:41.068Z,33.21
2022-08-28T16:05:09.060Z,33.00
2022-08-28T16:07:36.675Z,32.72
2022-08-28T16:10:06.950Z,32.88
2022-08-28T16:12:34.853Z,33.00
2022-08-28T16:15:02.723Z,33.38
2022-08-28T16:17:31.877Z,33.89
2022-08-28T16:19:59.435Z,33.68
2022-08-28T16:22:27.531Z,33.89
2022-08-28T16:24:55.176Z,34.17
2022-08-28T16:27:23.798Z,34.08
2022-08-28T16:29:52.986Z,33.89
2022-08-28T16:32:21.261Z,33.73
2022-08-28T16:34:50.634Z,33.71
2022-08-28T16:37:20.843Z,33.89
2022-08-28T16:39:49.349Z,33.91
2022-08-28T16:42:17.434Z,34.22
2022-08-28T16:44:45.074Z,33.87
2022-08-28T16:47:13.105Z,34.33
2022-08-28T16:49:40.753Z,33.77
2022-08-28T16:52:09.789Z,33.95
2022-08-28T16:54:37.610Z,34.08
2022-08-28T16:57:13.720Z,33.86
2022-08-28T16:59:41.348Z,33.87
2022-08-28T17:02:09.753Z,34.42
2022-08-28T17:04:40.921Z,34.86
2022-08-28T17:07:10.079Z,34.67
2022-08-28T17:09:37.637Z,34.75
2022-08-28T17:12:05.354Z,34.75
2022-08-28T17:14:33.443Z,34.66
2022-08-28T17:17:01.065Z,35.42
2022-08-28T17:19:28.934Z,35.19
2022-08-28T17:22:14.091Z,35.36
2022-08-28T17:24:43.091Z,35.35
2022-08-28T17:27:10.782Z,36.12
2022-08-28T17:29:39.206Z,35.53
2022-08-28T17:32:07.878Z,35.58
2022-08-28T17:34:35.880Z,36.35
2022-08-28T17:37:03.962Z,36.52
2022-08-28T17:39:31.744Z,36.82
2022-08-28T17:42:00.943Z,36.89
2022-08-28T17:44:28.636Z,36.83
2022-08-28T17:46:56.569Z,36.76
2022-08-28T17:49:24.282Z,36.84
2022-08-28T17:51:52.134Z,37.15
2022-08-28T17:54:21.487Z,37.13
2022-08-28T17:56:49.744Z,37.38
2022-08-28T17:59:19.236Z,37.38
2022-08-28T18:01:47.441Z,37.47
2022-08-28T18:04:21.619Z,38.31
2022-08-28T18:06:54.053Z,37.78
2022-08-28T18:09:22.060Z,37.89
2022-08-28T18:11:49.691Z,38.01
2022-08-28T18:14:18.753Z,38.35
2022-08-28T18:16:47.010Z,38.50
2022-08-28T18:19:16.164Z,38.39
2022-08-28T18:21:43.758Z,38.35
2022-08-28T18:24:12.954Z,38.75
2022-08-28T18:26:40.976Z,38.71
2022-08-28T18:29:08.650Z,38.95
2022-08-28T18:31:37.758Z,39.05
2022-08-28T18:34:05.448Z,39.58
2022-08-28T18:36:33.052Z,39.69
2022-08-28T18:39:00.754Z,40.24
2022-08-28T18:41:41.549Z,40.31
2022-08-28T18:44:12.387Z,40.50
2022-08-28T18:46:41.445Z,40.74
2022-08-28T18:49:09.291Z,40.88
2022-08-28T18:51:37.420Z,41.27
2022-08-28T18:54:05.318Z,41.36
2022-08-28T18:56:33.941Z,41.56
2022-08-28T18:59:04.310Z,41.52
2022-08-28T19:01:32.070Z,41.62
2022-08-28T19:04:01.333Z,41.99
2022-08-28T19:06:29.110Z,42.56
2022-08-28T19:08:56.907Z,42.70
2022-08-28T19:11:24.794Z,42.81
2022-08-28T19:13:52.577Z,43.55
2022-08-28T19:16:20.917Z,43.52
2022-08-28T19:18:48.809Z,43.42
2022-08-28T19:21:22.317Z,43.84
2022-08-28T19:23:51.838Z,44.01
2022-08-28T19:26:24.431Z,44.17
2022-08-28T19:28:52.306Z,43.90
2022-08-28T19:31:19.962Z,44.14
2022-08-28T19:33:47.828Z,44.24
2022-08-28T19:36:15.479Z,44.27
2022-08-28T19:38:44.524Z,44.68
2022-08-28T19:41:13.044Z,45.00
2022-08-28T19:43:43.292Z,45.35
2022-08-28T19:46:18.257Z,45.23
2022-08-28T19:48:48.462Z,45.59
2022-08-28T19:51:17.435Z,45.68
2022-08-28T19:53:46.865Z,45.91
2022-08-28T19:56:14.571Z,46.15
2022-08-28T19:58:42.369Z,46.31
2022-08-28T20:01:10.502Z,46.59
2022-08-28T20:03:40.133Z,46.65
2022-08-28T20:06:08.282Z,46.51
2022-08-28T20:08:36.510Z,46.62
2022-08-28T20:11:05.678Z,46.78
2022-08-28T20:13:33.561Z,47.07
2022-08-28T20:16:04.412Z,47.08
2022-08-28T20:18:33.319Z,46.83
2022-08-28T20:21:01.858Z,47.18
2022-08-28T20:23:29.612Z,47.07
2022-08-28T20:25:57.231Z,47.26
2022-08-28T20:28:26.279Z,47.46
2022-08-28T20:30:53.973Z,47.48
2022-08-28T20:33:22.440Z,47.49
2022-08-28T20:35:59.980Z,47.50
2022-08-28T20:38:27.748Z,48.10
2022-08-28T20:41:03.163Z,47.93
2022-08-28T20:43:32.429Z,48.17
2022-08-28T20:46:00.749Z,48.82
2022-08-28T20:48:28.811Z,49.18
2022-08-28T20:50:56.778Z,48.66
2022-08-28T20:53:36.949Z,49.70
2022-08-28T20:56:06.835Z,49.60
2022-08-28T20:58:36.084Z,49.56
2022-08-28T21:01:04.322Z,49.75
2022-08-28T21:03:32.031Z,49.57
2022-08-28T21:05:59.641Z,49.97
2022-08-28T21:08:27.220Z,49.74
2022-08-28T21:10:54.906Z,50.06
2022-08-28T21:13:23.631Z,49.84
2022-08-28T21:15:52.605Z,49.87
2022-08-28T21:18:20.209Z,49.96
2022-08-28T21:20:48.064Z,50.41
2022-08-28T21:23:16.153Z,50.73
2022-08-28T21:25:43.833Z,50.85
2022-08-28T21:28:11.435Z,50.69
2022-08-28T21:30:41.435Z,51.09
2022-08-28T21:33:10.463Z,51.34
2022-08-28T21:35:38.127Z,51.42
2022-08-28T21:38:05.708Z,51.70
2022-08-28T21:40:35.162Z,51.99
2022-08-28T21:43:03.132Z,51.89
2022-08-28T21:45:30.885Z,52.10
2022-08-28T21:47:58.515Z,51.98
2022-08-28T21:50:29.018Z,52.09
2022-08-28T21:52:56.741Z,51.96
2022-08-28T21:55:24.880Z,51.76
2022-08-28T21:57:52.560Z,52.04
2022-08-28T22:00:21.622Z,52.27
2022-08-28T22:02:49.416Z,52.17
2022-08-28T22:05:17.193Z,51.99
2022-08-28T22:07:46.347Z,52.05
2022-08-28T22:10:14.939Z,52.14
2022-08-28T22:12:42.754Z,52.00
2022-08-28T22:15:10.607Z,51.94
2022-08-28T22:17:38.479Z,52.20
2022-08-28T22:20:06.408Z,52.25
2022-08-28T22:22:51.316Z,52.26
2022-08-28T22:25:20.374Z,52.57
2022-08-28T22:27:47.999Z,52.92
2022-08-28T22:30:15.632Z,53.25
2022-08-28T22:32:45.197Z,53.76
2022-08-28T22:35:12.904Z,53.91
2022-08-28T22:37:40.770Z,54.15
2022-08-28T22:40:13.275Z,54.17
2022-08-28T22:42:42.939Z,54.37
2022-08-28T22:45:11.158Z,54.32
2022-08-28T22:47:39.525Z,54.73
2022-08-28T22:50:07.687Z,54.60
2022-08-28T22:52:35.289Z,54.63
2022-08-28T22:55:02.866Z,55.30
2022-08-28T22:57:34.341Z,55.83
2022-08-28T23:00:04.633Z,56.02
2022-08-28T23:02:32.327Z,56.05
2022-08-28T23:04:59.940Z,56.43
2022-08-28T23:07:27.547Z,56.53
2022-08-28T23:09:55.552Z,57.00
2022-08-28T23:12:23.251Z,57.10
2022-08-28T23:14:50.940Z,58.05
2022-08-28T23:17:20.312Z,58.14
2022-08-28T23:19:48.131Z,58.59
2022-08-28T23:22:16.011Z,58.65
2022-08-28T23:24:43.674Z,58.59
2022-08-28T23:27:34.875Z,58.83
2022-08-28T23:29:58.934Z,60.12
2022-08-28T23:32:27.946Z,59.49
2022-08-28T23:34:56.002Z,60.22
2022-08-28T23:37:23.622Z,60.30
2022-08-28T23:39:51.261Z,60.61
2022-08-28T23:42:22.131Z,60.63
2022-08-28T23:44:49.934Z,60.86
2022-08-28T23:47:17.602Z,61.97
2022-08-28T23:49:47.245Z,62.07
2022-08-28T23:52:14.882Z,62.03
2022-08-28T23:54:42.489Z,61.50
2022-08-28T23:57:11.094Z,61.88
2022-08-28T23:59:38.881Z,61.78
